Wind from 180 at 1 knots gusting 2

Air temperature 18.9° C
Dewpoint 13.1° C

Last reported at 2014-Apr-24 18:50 UTC.
Time now 2014-Apr-24 19:50 UTC

Location: N 38°44' E 000°06'.
View on Google Maps.

See reports from other nearby stations

Tides Stations Pressure Air Temp Water Temp Dewpoint Dewpoint depression Visibility Wind Speed Wind Dir Waves Ship positions

  
sailing weather and tide predictions

CW6020 Teulada ES weather

date/time (UTC)wind fromknots sea level pressurealtimeterstation pressurevisibilityair tempwater tempwave heightnotes
2014-Apr-24 18:50 180 1 gusting 2 18.9
2014-Apr-24 18:30 165 1 gusting 1 19.4
2014-Apr-24 18:20 180 2 gusting 3 19.4
2014-Apr-24 17:50 180 2 gusting 3 20.6
2014-Apr-24 17:40 195 6 gusting 10 20.6
2014-Apr-24 17:30 120 3 gusting 6 20.6
2014-Apr-24 17:20 135 6 gusting 11 20.6
2014-Apr-24 17:10 195 5 gusting 6 20.6
2014-Apr-24 17:00 180 6 gusting 7 20.6
2014-Apr-24 16:50 180 9 gusting 12 20.6
2014-Apr-24 16:40 180 7 gusting 11 21.1
2014-Apr-24 16:30 195 8 gusting 13 21.1
2014-Apr-24 16:00 165 6 gusting 8 21.1
2014-Apr-24 15:50 180 9 gusting 13 21.1
2014-Apr-24 15:10 195 6 gusting 10 21.1
2014-Apr-24 14:40 150 7 gusting 11 21.1
2014-Apr-24 14:10 180 10 gusting 13 20.6
2014-Apr-24 14:00 187 7 gusting 12 21.1
2014-Apr-24 13:50 187 6 gusting 11 21.7
2014-Apr-24 13:40 180 9 gusting 11 21.1
2014-Apr-24 13:30 165 7 gusting 11 21.1
2014-Apr-24 13:20 120 6 gusting 13 20.6
2014-Apr-24 13:10 165 7 gusting 13 21.1
2014-Apr-24 12:50 120 6 gusting 8 20.6
2014-Apr-24 12:40 180 7 gusting 13 21.7
2014-Apr-24 12:20 195 10 gusting 13 22.2
2014-Apr-24 11:30 150 9 gusting 12 21.7
2014-Apr-24 11:00 120 6 gusting 9 22.2
2014-Apr-24 10:50 150 5 gusting 7 22.8
2014-Apr-24 10:20 150 4 gusting 6 22.8
2014-Apr-24 10:10 180 6 gusting 9 22.8
2014-Apr-24 10:00 165 6 gusting 7 22.2
2014-Apr-24 09:30 150 4 gusting 6 21.7
2014-Apr-24 09:20 150 3 gusting 5 22.2
2014-Apr-24 09:00 120 2 gusting 4 24.4
2014-Apr-24 08:40 165 2 gusting 4 24.4
2014-Apr-24 08:30 022 1 gusting 2 23.3
2014-Apr-24 08:20 337 1 gusting 2 23.3
2014-Apr-24 08:10 322 1 gusting 1 22.2
2014-Apr-24 07:40 150 0 gusting 1 20.6
2014-Apr-24 07:30 225 20.0
2014-Apr-24 06:50 150 12.8
2014-Apr-24 06:30 120 11.7
2014-Apr-24 06:10 135 0 gusting 1 10.6
2014-Apr-24 05:30 045 10.6
2014-Apr-24 05:20 135 1 gusting 2 10.6
2014-Apr-24 05:00 180 10.6
2014-Apr-24 04:50 210 0 gusting 1 11.1
2014-Apr-24 04:40 180 11.1
2014-Apr-24 04:30 060 0 gusting 1 11.1
2014-Apr-24 04:10 180 11.1
2014-Apr-24 04:00 090 11.7
2014-Apr-24 03:50 277 11.7
2014-Apr-24 03:10 015 11.7
2014-Apr-24 03:00 255 11.7
2014-Apr-24 02:50 105 0 gusting 1 11.7
2014-Apr-24 02:40 120 1 gusting 1 11.7
2014-Apr-24 01:40 285 12.2
2014-Apr-24 01:10 105 12.8
2014-Apr-24 01:00 060 12.8
2014-Apr-24 00:50 165 12.8
2014-Apr-24 00:40 195 1 gusting 1 12.8
2014-Apr-24 00:10 150 12.8
2014-Apr-24 00:00 180 12.8
2014-Apr-23 23:40 180 12.8
2014-Apr-23 23:30 120 13.3
2014-Apr-23 23:10 285 13.3
2014-Apr-23 23:00 187 13.9
2014-Apr-23 22:40 315 14.4
2014-Apr-23 22:30 345 0 gusting 1 13.9
2014-Apr-23 22:20 075 13.9
2014-Apr-23 21:50 195 15.0
2014-Apr-23 20:50 240 16.1
2014-Apr-23 20:30 247 0 gusting 1 16.7
2014-Apr-23 20:20 210 17.2
2014-Apr-23 20:10 165 1 gusting 3 17.8
2014-Apr-23 20:00 165 1 gusting 1 17.8
2014-Apr-23 19:40 180 1 gusting 2 17.8
2014-Apr-23 19:30 165 1 gusting 2 17.8
2014-Apr-23 19:20 180 1 gusting 3 18.3
2014-Apr-23 19:00 180 3 gusting 3 18.9
2014-Apr-23 18:50 180 3 gusting 6 19.4
2014-Apr-23 18:30 180 5 gusting 8 20.0
2014-Apr-23 18:00 180 10 gusting 13 20.6
2014-Apr-23 17:50 195 8 gusting 13 21.1
2014-Apr-23 17:40 180 6 gusting 9 21.7
2014-Apr-23 17:20 195 9 gusting 13 21.7
2014-Apr-23 17:00 165 7 gusting 12 22.2
2014-Apr-23 16:40 172 8 gusting 13 22.8
2014-Apr-23 15:40 195 11 gusting 14 22.8
2014-Apr-23 15:30 165 4 gusting 6 22.8
2014-Apr-23 15:20 120 5 gusting 8 23.3
2014-Apr-23 15:10 135 3 gusting 6 23.3
2014-Apr-23 14:50 165 5 gusting 7 23.9
2014-Apr-23 14:30 180 6 gusting 8 23.9
2014-Apr-23 14:20 150 6 gusting 12 24.4
2014-Apr-23 14:00 120 3 gusting 5 24.4
2014-Apr-23 13:40 127 6 gusting 6 24.4
2014-Apr-23 13:30 082 4 gusting 6 24.4
2014-Apr-23 13:20 165 5 gusting 7 23.3
2014-Apr-23 13:10 165 5 gusting 6 23.3
2014-Apr-23 12:40 172 4 gusting 6 23.3
2014-Apr-23 12:20 165 6 gusting 10 23.3
2014-Apr-23 12:10 135 6 gusting 7 23.3
2014-Apr-23 11:30 180 5 gusting 7 23.9
2014-Apr-23 11:20 195 5 gusting 8 23.3
2014-Apr-23 11:00 195 6 gusting 9 23.9
2014-Apr-23 10:00 165 6 gusting 7 25.0
2014-Apr-23 09:20 240 1 gusting 3 25.6
2014-Apr-23 08:50 322 3 gusting 4 22.8
2014-Apr-23 08:30 240 3 gusting 6 22.8
2014-Apr-23 08:00 330 5 gusting 8 21.7
2014-Apr-23 07:40 300 1 gusting 3 21.1
2014-Apr-23 07:30 240 6 gusting 9 20.6
2014-Apr-23 07:20 187 3 gusting 10 20.6
2014-Apr-23 06:50 18.9
2014-Apr-23 06:40 315 6 gusting 11 18.3
2014-Apr-23 06:30 300 3 gusting 5 18.3
2014-Apr-23 06:20 300 1 gusting 3 18.3
2014-Apr-23 06:10 322 6 gusting 7 17.8
2014-Apr-23 06:00 292 2 gusting 5 17.8
2014-Apr-23 05:30 330 1 gusting 3 17.8
2014-Apr-23 05:20 285 3 gusting 4 17.2
2014-Apr-23 04:50 322 3 gusting 6 17.2
2014-Apr-23 04:40 330 1 gusting 3 17.2
2014-Apr-23 04:30 300 1 gusting 1 17.8
2014-Apr-23 04:20 315 1 gusting 3 17.8
2014-Apr-23 04:00 330 1 gusting 1 17.8
2014-Apr-23 03:40 307 3 gusting 5 17.8
2014-Apr-23 03:30 345 1 gusting 3 17.8
2014-Apr-23 03:20 337 2 gusting 3 17.8
2014-Apr-23 03:00 300 1 gusting 2 17.8
2014-Apr-23 02:50 352 1 gusting 2 18.3
2014-Apr-23 02:40 037 1 gusting 3 18.3
2014-Apr-23 02:00 270 2 gusting 3 18.9
2014-Apr-23 01:40 337 1 gusting 3 18.9
2014-Apr-23 01:20 292 2 gusting 3 18.9
2014-Apr-23 01:10 292 1 gusting 1 18.9
2014-Apr-23 00:30 345 3 gusting 6 19.4
2014-Apr-23 00:20 300 2 gusting 3 19.4
2014-Apr-23 00:10 19.4
2014-Apr-22 23:50 030 2 gusting 3 19.4
2014-Apr-22 23:40 330 1 gusting 2 19.4
2014-Apr-22 23:20 330 1 gusting 5 19.4
2014-Apr-22 23:10 20.0
2014-Apr-22 22:50 330 1 gusting 1 20.0
2014-Apr-22 22:30 285 3 gusting 6 20.0
2014-Apr-22 22:20 330 1 gusting 3 20.0
2014-Apr-22 22:10 285 1 gusting 3 19.4
2014-Apr-22 22:00 315 1 gusting 2 19.4
2014-Apr-22 21:50 315 1 gusting 2 19.4
2014-Apr-22 21:10 135 16.1
2014-Apr-22 21:00 135 16.7
2014-Apr-22 20:40 330 16.7
2014-Apr-22 20:30 300 16.7
2014-Apr-22 20:20 075 17.2
2014-Apr-22 20:00 180 17.2
2014-Apr-22 19:10 135 1 gusting 2 17.8
2014-Apr-22 19:00 210 17.8